KGUP/GUP METAR and TAF weather

Enter ICAO airport designator
Station Type Date Time Source
KGUP METAR 2019/10/15 20:53 UTC NOAA

KGUP 152053Z AUTO 11006KT 10SM CLR 21/M12 A3025 RMK AO2 SLP167 T02111122 56011


Station Type Date Time Source
KGUP Decoded METAR 2019/10/15 20:53 UTC NOAA

GALLUP MUNICIPAL AIRPORT, NM, United States (KGUP) 35-31N 108-47W 1971M
Oct 15, 2019 - 04:53 PM EDT / 2019.10.15 2053 UTC
Wind: from the ESE (110 degrees) at 7 MPH (6 KT):0
Visibility: 10 mile(s):0
Sky conditions: clear
Temperature: 70.0 F (21.1 C)
Dew Point: 10.0 F (-12.2 C)
Relative Humidity: 9%
Pressure (altimeter): 30.25 in. Hg (1024 hPa)
Pressure tendency: 0.03 inches (1.1 hPa) lower than three hours ago
ob: KGUP 152053Z AUTO 11006KT 10SM CLR 21/M12 A3025 RMK AO2 SLP167 T02111122 56011
cycle: 21

Station Type Date Time Source
KGUP TAF 2019/10/15 18:27 UTC NOAA

TAF KGUP 151725Z 1518/1618 00000KT P6SM SKC
FM151900 30007KT P6SM SKC
FM160100 VRB05KT P6SM SKC

Example: see airport list